Aviation Digital Data Service (ADDS)

Output produced by TAFs form (2327 UTC 24 May 2018)
found at http://aviationweather.gov/adds/tafs/
 
METAR text: KFFZ 242247Z 19008G15KT 30SM SKC 36/01 A2991
Conditions at: KFFZ (MESA/FALCON FLD , AZ, US) observed 2247 UTC 24 May 2018
Temperature: 36.0°C (97°F)
Dewpoint: 1.0°C (34°F) [RH = 11%]
Pressure (altimeter): 29.91 inches Hg (1013.0 mb)
Winds: from the S (190 degrees) at 9 MPH (8 knots; 4.2 m/s)
gusting to 17 MPH (15 knots; 7.8 m/s)
Visibility: 30 miles (48 km)
Ceiling: at least 12,000 feet AGL
Clouds: clear skies
Weather: no significant weather observed at this time

METAR text: KIWA 242254Z 25015KT 35SM SKC 36/M01 A2991
Conditions at: KIWA (CHANDLER/MESA , AZ, US) observed 2254 UTC 24 May 2018
Temperature: 36.0°C (97°F)
Dewpoint: -1.0°C (30°F) [RH = 10%]
Pressure (altimeter): 29.91 inches Hg (1013.0 mb)
Winds: from the WSW (250 degrees) at 17 MPH (15 knots; 7.8 m/s)
Visibility: 35 miles (56 km)
Ceiling: at least 12,000 feet AGL
Clouds: clear skies
Weather: no significant weather observed at this time

Forecast for: KIWA (CHANDLER/MESA , AZ, US)
Text: KIWA 242320Z 2500/2524 25010KT P6SM SKC
Forecast period: 0000 to 0900 UTC 25 May 2018
Forecast type: FROM: standard forecast or significant change
Winds: from the WSW (250 degrees) at 12 MPH (10 knots; 5.2 m/s)
Visibility: 6 or more miles (10+ km)
Clouds: clear skies
Weather: no significant weather forecast for this period
Text: TEMPO 2500/2502 24012G20KT
Forecast period: 0000 to 0200 UTC 25 May 2018
Forecast type: TEMPORARY: The following changes expected for less than half the time period
Winds: from the WSW (240 degrees) at 14 MPH (12 knots; 6.2 m/s)
gusting to 23 MPH (20 knots; 10.4 m/s)
Weather: no significant weather forecast for this period
Text: FM250900 10006KT P6SM SKC
Forecast period: 0900 to 2000 UTC 25 May 2018
Forecast type: FROM: standard forecast or significant change
Winds: from the E (100 degrees) at 7 MPH (6 knots; 3.1 m/s)
Visibility: 6 or more miles (10+ km)
Clouds: clear skies
Weather: no significant weather forecast for this period
Text: FM252000 20007KT P6SM SKC
Forecast period: 2000 UTC 25 May 2018 to 0000 UTC 26 May 2018
Forecast type: FROM: standard forecast or significant change
Winds: from the SSW (200 degrees) at 8 MPH (7 knots; 3.6 m/s)
Visibility: 6 or more miles (10+ km)
Clouds: clear skies
Weather: no significant weather forecast for this period